x

West Santa Barbara 38 Nm West Of Santa Barbara, Ca (46054) Wave Buoy

7:50am - Sun 19th Feb 2017 All times are PST. -8 hours from GMT.

  • Sig Wave height 12.1ft
  • Swell Direction
  • Peak Period 11s
  • Average Period 9s
  • Wind
    16mph, 20mph gusts
  • Sea Temp 55°f
  • Air Temp 54°f
  • Sea Pressure 1012.8mb
  • West Santa Barbara  38 Nm West Of Santa Barbara, Ca
  • West Santa Barbara  38 Nm West Of Santa Barbara, Ca

More Historic Weather Station data

Upgrade to MSW Pro to gain access to the past 30 days of data for over 8000 Wavebouys and Weather Stations around the globe.

Join Pro

Comparision Forecast

View Surf forecast
   
Sun 02/19 7:50am 12ft 11s 9s 16 20 mph 1012.8mb 55f 54f
6:50am 13.5ft 12s 9s 18 20 mph 1011.6mb 55f 54f
5:50am 13.5ft 13s 9s 25 31 mph 1010.9mb 55f 55f
4:50am 12.5ft 12s 8s 22 27 mph 1010.3mb 55f 55f
3:50am 12ft 13s 8s 27 31 mph 1009.9mb 56f 55f
2:50am 15.5ft 13s 9s 22 29 mph 1009.9mb 56f 55f
1:50am 15.5ft 12s 9s 25 29 mph 1009.7mb 56f 55f
12:50am 15.5ft 13s 9s 25 31 mph 1009.1mb 56f 55f
Sat 02/18 11:50pm 15.5ft 14s 9s 25 31 mph 1008.9mb 56f 54f
10:50pm 17.5ft 14s 9s 29 36 mph 1008.6mb 56f 55f
9:50pm 17.5ft 14s 9s 25 31 mph 1008.5mb 56f 55f
8:50pm 19.5ft 14s 9s 29 34 mph 1008mb 56f 55f
7:50pm 16.5ft 14s 9s 29 34 mph 1006.7mb 56f 55f
6:50pm 18ft 14s 9s 27 36 mph 1005.6mb 56f 55f
5:50pm 15ft 13s 8s 29 36 mph 1005mb 56f 55f
4:50pm 16.5ft 14s 9s 29 38 mph 1004.3mb 56f 55f
3:50pm 15.5ft 14s 9s 29 36 mph 1003.7mb 56f 55f
2:50pm 18ft 13s 9s 29 36 mph 1003.7mb 56f 55f
1:50pm 18ft 14s 9s 31 40 mph 1003.4mb 56f 55f
12:50pm 19ft 14s 9s 29 36 mph 1003.4mb 56f 55f
11:50am 19.5ft 13s 9s 29 38 mph 1003.2mb 56f 55f
10:50am 21.5ft 14s 10s 29 36 mph 1003.1mb 56f 55f
9:50am 22ft 15s 10s 27 34 mph 1002.4mb 56f 55f
8:50am 18ft 12s 9s 29 36 mph 1001.9mb 56f 55f
7:50am 14.5ft 11s 9s 27 36 mph 1001mb 56f 54f
6:50am 12.5ft 11s 9s 9 11 mph 1000.3mb 56f 53f
5:50am 13ft 11s 9s 13 22 mph 999mb 56f 55f
4:50am 11ft 14s 9s 13 18 mph 998.2mb 56f 55f
3:50am 11ft 12s 9s 11 18 mph 997.8mb 56f 56f
2:50am 11ft 10s 9s 9 11 mph 997.3mb 56f 56f
1:50am 10ft 10s 9s 9 11 mph 997.1mb 56f 56f
12:50am 10.5ft 9s 9s 7 9 mph 996.7mb 56f 56f
Fri 02/17 11:50pm 10.5ft 10s 9s 7 9 mph 996.4mb 56f 56f
10:50pm 10ft 10s 8s 9 11 mph 996.1mb 56f 56f
9:50pm 11ft 10s 8s 9 11 mph 996mb 56f 56f
8:50pm 12ft 14s 8s 9 11 mph 995.2mb 56f 56f
7:50pm 11ft 9s 8s 9 13 mph 994.3mb 56f 56f
6:50pm 12ft 10s 8s 7 11 mph 993.9mb 56f 56f
5:50pm 12ft 14s 8s 13 16 mph 993.3mb 56f 57f
4:50pm 15ft 15s 8s 18 25 mph 992.6mb 56f 57f
3:50pm 14ft 9s 8s 20 25 mph 992.1mb 56f 58f
2:50pm 14ft 14s 8s 22 29 mph 991.7mb 56f 58f
1:50pm 13ft 8s 7s 27 34 mph 992mb 57f 58f
12:50pm 11ft 8s 6s 31 45 mph 992.5mb 57f 58f
11:50am 12ft 15s 7s 31 40 mph 994.7mb 56f 57f
10:50am 11.5ft 16s 7s 34 43 mph 996.3mb 57f 57f
9:50am 11.5ft 16s 7s 34 40 mph 997.8mb 57f 57f
8:50am 10ft 15s 7s 34 40 mph 998.7mb 57f 57f
7:50am 11ft 16s 7s 31 40 mph 1000.7mb 57f 57f
6:50am 10ft 16s 8s 31 36 mph 1000.6mb 57f 57f
5:50am 9ft 16s 7s 31 38 mph 1001.5mb 57f 57f
4:50am 9ft 15s 9s 27 31 mph 1003.5mb 57f 58f
3:50am 11ft 15s 11s 18 27 mph 1005.2mb 57f 57f
2:50am 10.5ft 14s 11s 11 16 mph 1006.9mb 57f 56f
1:50am 11ft 13s 11s 11 16 mph 1008.2mb 57f 57f
12:50am 10ft 16s 11s 11 16 mph 1008.5mb 57f 57f
Thu 02/16 11:50pm 11ft 16s 11s 7 9 mph 1009.9mb 57f 57f
10:50pm 12ft 16s 11s 4 7 mph 1011.2mb 57f 57f
9:50pm 11.5ft 16s 11s 4 7 mph 1012.4mb 57f 57f
8:50pm 10.5ft 14s 10s 9
mph
1012.6mb 57f 57f
7:50pm 11ft 17s 11s 4 11 mph 1012.6mb 57f 57f
6:50pm 10ft 17s 11s 2 4 mph 1013.9mb 57f 57f
5:50pm 10ft 17s 11s 9 13 mph 1014.5mb 57f 57f
4:50pm 10ft 12s 11s 9 11 mph 1013.6mb 57f 57f
3:50pm 10.5ft 13s 12s 4 7 mph 1013.8mb 57f 57f
2:50pm 8.5ft 12s 11s 7
mph
1015.2mb 58f 57f
1:50pm 7.5ft 13s 12s 2
mph
1015.7mb 58f 57f
12:50pm 8ft 13s 11s  -  4 mph 1016.5mb 57f 56f
11:50am 7ft 17s 11s 7 9 mph 1016.9mb 57f 55f
10:50am 7ft 12s 10s 4
mph
1017.8mb 57f 55f
9:50am 8ft 13s 11s 4 7 mph 1018.3mb 57f 54f
8:50am 6.5ft 13s 10s 2 7 mph 1017.5mb 57f 54f
7:50am 6.5ft 11s 10s 2 7 mph 1016.8mb 57f 54f
6:50am 6ft 13s 10s 11 13 mph 1017mb 57f 55f
5:50am 5.5ft 13s 9s 2 4 mph 1016.3mb 56f 55f
4:50am 5ft 13s 9s 9
mph
1016.6mb 56f 54f
3:50am 5.5ft 14s 10s 11 16 mph 1016.8mb 56f 56f
2:50am 4.5ft 14s 10s 7
mph
1017mb 56f 54f
1:50am 5ft 14s 11s 7 9 mph 1017.6mb 56f 54f
12:50am 5ft 14s 11s 7
mph
1018.1mb 57f 55f
Wed 02/15 11:50pm 5ft 14s 10s 4 7 mph 1018.5mb 57f 56f
10:50pm 4.5ft 14s 9s 7 9 mph 1018.9mb 57f 57f
9:50pm 4.5ft 14s 10s 9 11 mph 1018.9mb 57f 57f
8:50pm 4.5ft 15s 9s 2 4 mph 1018.5mb 57f 57f
7:50pm 4.5ft 14s 9s 4
mph
1018.4mb 57f 57f
6:50pm 4.5ft 14s 10s 2 4 mph 1018mb 58f 57f
5:50pm 4.5ft 14s 10s 7 9 mph 1017.6mb 58f 58f